Time;durP1;ratioP1;P1;durP2;ratioP2;P2;SDS_P1;SDS_P2;PMS_P1;PMS_P2;Temp;Humidity;BMP_temperature;BMP_pressure;BME280_temperature;BME280_humidity;BME280_pressure;Samples;Min_cycle;Max_cycle;Signal;HPM_P1;HPM_P2
2021/06/07 00:01:59;;;;;;;;;;;;;;;15.70;61.53;98486.42;1773875;80;22079;-90
2021/06/07 00:04:26;;;;;;;;;;;;;;;15.62;61.55;98488.41;1772603;80;26224;-88
2021/06/07 00:06:53;;;;;;;;;;;;;;;15.56;61.62;98485.48;1771578;80;24396;-85
2021/06/07 00:09:19;;;;;;;;;;;;;;;15.47;61.65;98485.80;1770922;80;20222;-85
2021/06/07 00:11:50;;;;;;;;;;;;;;;15.33;61.72;98491.45;1769615;80;24706;-85
2021/06/07 00:14:17;;;;;;;;;;;;;;;15.24;61.82;98489.63;1770185;80;22178;-87
2021/06/07 00:16:48;;;;;;;;;;;;;;;15.24;61.97;98485.19;1772526;80;25941;-88
2021/06/07 00:19:14;;;;;;;;;;;;;;;15.30;62.08;98482.02;1769851;80;24472;-87
2021/06/07 00:21:40;;;;;;;;;;;;;;;15.36;62.11;98481.48;1770920;80;20497;-88
2021/06/07 00:24:07;;;;;;;;;;;;;;;15.42;62.13;98480.10;1770216;80;24809;-88
2021/06/07 00:26:33;;;;;;;;;;;;;;;15.49;62.21;98482.04;1747116;80;21953;-88
2021/06/07 00:28:59;;;;;;;;;;;;;;;15.49;62.22;98483.36;1775066;80;25932;-88
2021/06/07 00:31:25;;;;;;;;;;;;;;;15.47;62.23;98481.36;1770565;79;24388;-88
2021/06/07 00:33:52;;;;;;;;;;;;;;;15.42;62.23;98478.78;1779097;79;20171;-89
2021/06/07 00:36:22;;;;;;;;;;;;;;;15.35;62.25;98478.48;1766714;80;24836;-88
2021/06/07 00:38:49;;;;;;;;;;;;;;;15.34;62.25;98478.13;1770367;80;21936;-88
2021/06/07 00:41:16;;;;;;;;;;;;;;;15.36;62.31;98472.25;1773152;80;25940;-89
2021/06/07 00:43:42;;;;;;;;;;;;;;;15.30;62.34;98478.55;1778187;80;24834;-85
2021/06/07 00:46:09;;;;;;;;;;;;;;;15.25;62.37;98473.68;1778609;79;20441;-88
2021/06/07 00:48:36;;;;;;;;;;;;;;;15.29;62.42;98475.07;1779753;79;24746;-89
2021/06/07 00:51:04;;;;;;;;;;;;;;;15.21;62.46;98479.36;1775929;80;22031;-90
2021/06/07 00:53:30;;;;;;;;;;;;;;;15.02;62.47;98470.42;1777898;79;26915;-90
2021/06/07 00:55:58;;;;;;;;;;;;;;;14.91;62.55;98474.47;1786873;79;24562;-91
2021/06/07 00:58:25;;;;;;;;;;;;;;;14.85;62.65;98473.69;1757669;79;20142;-91
2021/06/07 01:00:52;;;;;;;;;;;;;;;14.93;62.76;98474.34;1779684;79;25616;-90
2021/06/07 01:03:20;;;;;;;;;;;;;;;15.01;62.82;98471.87;1779013;80;21973;-90
2021/06/07 01:05:48;;;;;;;;;;;;;;;15.10;62.91;98468.45;1776190;79;26811;-88
2021/06/07 01:08:14;;;;;;;;;;;;;;;15.15;62.96;98472.83;1763273;79;24683;-87
2021/06/07 01:10:43;;;;;;;;;;;;;;;15.20;62.99;98464.03;1779578;79;20475;-87
2021/06/07 01:13:14;;;;;;;;;;;;;;;15.23;62.98;98466.38;1777899;79;24844;-87
2021/06/07 01:15:41;;;;;;;;;;;;;;;15.25;63.00;98466.25;1780834;79;21969;-85
2021/06/07 01:18:11;;;;;;;;;;;;;;;15.24;63.02;98464.09;1781848;79;26031;-86
2021/06/07 01:20:37;;;;;;;;;;;;;;;15.15;63.02;98460.13;1779250;80;24387;-85
2021/06/07 01:23:08;;;;;;;;;;;;;;;15.06;63.06;98456.48;1782698;79;20297;-85
2021/06/07 01:25:36;;;;;;;;;;;;;;;15.11;63.08;98457.42;1780618;79;24850;-85
2021/06/07 01:28:03;;;;;;;;;;;;;;;15.14;63.11;98450.06;1777217;79;22820;-86
2021/06/07 01:30:31;;;;;;;;;;;;;;;15.08;63.15;98452.76;1783317;79;26142;-85
2021/06/07 01:33:00;;;;;;;;;;;;;;;14.95;63.15;98448.67;1773794;79;24604;-89
2021/06/07 01:35:27;;;;;;;;;;;;;;;14.89;63.21;98448.73;1708160;83;20182;-89
2021/06/07 01:37:55;;;;;;;;;;;;;;;14.82;63.25;98450.73;1740242;80;24734;-85
2021/06/07 01:40:24;;;;;;;;;;;;;;;14.68;63.29;98442.69;1737596;82;22776;-86
2021/06/07 01:42:50;;;;;;;;;;;;;;;14.57;63.33;98450.20;1737089;82;26725;-86
2021/06/07 01:45:17;;;;;;;;;;;;;;;14.50;63.39;98449.08;1739240;80;24391;-86
2021/06/07 01:47:43;;;;;;;;;;;;;;;14.42;63.45;98451.52;1738433;80;20338;-84
2021/06/07 01:50:14;;;;;;;;;;;;;;;14.32;63.51;98453.23;1741073;80;20363;-85
2021/06/07 01:52:46;;;;;;;;;;;;;;;14.27;63.62;98454.11;1736693;81;22106;-84
2021/06/07 01:55:17;;;;;;;;;;;;;;;14.25;63.73;98453.39;1737124;82;25471;-84
2021/06/07 01:57:43;;;;;;;;;;;;;;;14.26;63.85;98456.38;1736715;82;24263;-85
2021/06/07 02:00:11;;;;;;;;;;;;;;;14.30;63.96;98451.69;1737593;81;20442;-85
2021/06/07 02:02:46;;;;;;;;;;;;;;;14.39;64.06;98453.11;1732288;82;20498;-85
2021/06/07 02:05:14;;;;;;;;;;;;;;;14.50;64.12;98451.71;1737235;82;22137;-91
2021/06/07 02:07:48;;;;;;;;;;;;;;;14.59;64.16;98448.77;1739268;82;25874;-91
2021/06/07 02:10:15;;;;;;;;;;;;;;;14.62;64.18;98452.44;1736182;82;23928;-90
2021/06/07 02:12:41;;;;;;;;;;;;;;;14.48;64.19;98451.00;1737648;82;20589;-91
2021/06/07 02:15:13;;;;;;;;;;;;;;;14.33;64.19;98458.02;1737532;82;24866;-91
2021/06/07 02:17:42;;;;;;;;;;;;;;;14.23;64.20;98456.18;1739546;81;22271;-90
2021/06/07 02:20:21;;;;;;;;;;;;;;;14.14;64.26;98461.36;1736327;82;25984;-91
2021/06/07 02:22:48;;;;;;;;;;;;;;;14.15;64.35;98463.03;1706671;83;23953;-89
2021/06/07 02:25:16;;;;;;;;;;;;;;;14.20;64.45;98463.00;1737755;81;20596;-87
2021/06/07 02:27:42;;;;;;;;;;;;;;;14.15;64.52;98469.61;1736628;82;24875;-89
2021/06/07 02:30:10;;;;;;;;;;;;;;;14.17;64.59;98470.33;1737286;82;22056;-88
2021/06/07 02:32:42;;;;;;;;;;;;;;;14.10;64.64;98471.80;1739273;81;26577;-89
2021/06/07 02:35:10;;;;;;;;;;;;;;;14.00;64.73;98472.21;1760932;80;24485;-89
2021/06/07 02:37:38;;;;;;;;;;;;;;;13.95;64.78;98478.34;1768130;80;20527;-88
2021/06/07 02:40:06;;;;;;;;;;;;;;;13.92;64.86;98474.16;1768072;80;24795;-89
2021/06/07 02:42:32;;;;;;;;;;;;;;;14.05;64.97;98478.77;1768997;79;22146;-89
2021/06/07 02:45:01;;;;;;;;;;;;;;;14.15;65.06;98472.25;1770554;79;21023;-89
2021/06/07 02:47:27;;;;;;;;;;;;;;;14.19;65.08;98467.91;1772731;80;24020;-89
2021/06/07 02:50:03;;;;;;;;;;;;;;;14.20;65.13;98466.95;1766490;79;20499;-91
2021/06/07 02:52:31;;;;;;;;;;;;;;;14.24;65.17;98466.20;1770696;80;25554;-91
2021/06/07 02:54:58;;;;;;;;;;;;;;;14.19;65.22;98470.53;1762853;80;22119;-91
2021/06/07 02:57:31;;;;;;;;;;;;;;;14.07;65.24;98466.80;1767169;80;26027;-90
2021/06/07 02:59:57;;;;;;;;;;;;;;;13.96;65.26;98468.17;1769349;80;24484;-92
2021/06/07 03:02:26;;;;;;;;;;;;;;;13.88;65.32;98469.28;1770289;80;20225;-90
2021/06/07 03:04:55;;;;;;;;;;;;;;;13.86;65.36;98469.87;1767837;80;24853;-90
2021/06/07 03:07:22;;;;;;;;;;;;;;;13.91;65.47;98472.98;1769582;80;21980;-90
2021/06/07 03:09:51;;;;;;;;;;;;;;;13.94;65.56;98475.34;1749637;80;26931;-91
2021/06/07 03:12:24;;;;;;;;;;;;;;;14.00;65.61;98482.26;1767114;80;24466;-90
2021/06/07 03:14:53;;;;;;;;;;;;;;;14.08;65.67;98481.12;1774052;79;20223;-92
2021/06/07 03:17:21;;;;;;;;;;;;;;;14.01;65.67;98489.20;1770304;80;24743;-92
2021/06/07 03:19:48;;;;;;;;;;;;;;;13.94;65.68;98491.14;1769128;80;22708;-88
2021/06/07 03:22:14;;;;;;;;;;;;;;;13.86;65.72;98489.60;1767244;80;25796;-89
2021/06/07 03:24:40;;;;;;;;;;;;;;;13.89;65.80;98484.95;1767316;80;24486;-89
2021/06/07 03:27:07;;;;;;;;;;;;;;;13.89;65.86;98488.05;1768435;80;20246;-89
2021/06/07 03:29:33;;;;;;;;;;;;;;;13.92;65.93;98490.41;1770743;80;24814;-88
2021/06/07 03:31:58;;;;;;;;;;;;;;;14.08;66.07;98487.70;1767008;80;20343;-88
2021/06/07 03:34:25;;;;;;;;;;;;;;;14.14;66.12;98488.99;1773225;80;21189;-88
2021/06/07 03:36:51;;;;;;;;;;;;;;;14.21;66.21;98487.05;1770366;80;24650;-89
2021/06/07 03:39:17;;;;;;;;;;;;;;;14.41;66.29;98493.77;1768530;80;20277;-88
2021/06/07 03:41:52;;;;;;;;;;;;;;;14.62;66.39;98488.83;1774846;80;20230;-90
2021/06/07 03:44:16;;;;;;;;;;;;;;;14.89;66.47;98485.62;1710183;82;22967;-87
2021/06/07 03:46:45;;;;;;;;;;;;;;;15.14;66.50;98496.20;1695112;84;21271;-87
2021/06/07 03:49:11;;;;;;;;;;;;;;;15.31;66.47;98486.33;1722908;82;24494;-87
2021/06/07 03:51:37;;;;;;;;;;;;;;;15.52;66.45;98485.42;1724047;82;20479;-88
2021/06/07 03:54:04;;;;;;;;;;;;;;;15.70;66.38;98487.25;1700150;82;20247;-87
2021/06/07 03:56:30;;;;;;;;;;;;;;;15.88;66.26;98491.34;1723149;82;21985;-87
2021/06/07 03:58:56;;;;;;;;;;;;;;;16.05;66.14;98489.80;1722026;83;21061;-88
2021/06/07 04:01:22;;;;;;;;;;;;;;;16.21;66.03;98495.34;1719171;83;24500;-87
2021/06/07 04:03:48;;;;;;;;;;;;;;;16.33;65.92;98483.17;1723078;83;20277;-87
2021/06/07 04:06:16;;;;;;;;;;;;;;;16.45;65.80;98489.13;1723913;83;20234;-87
2021/06/07 04:08:42;;;;;;;;;;;;;;;16.55;65.65;98493.91;1722111;83;22019;-88
2021/06/07 04:11:10;;;;;;;;;;;;;;;16.63;65.48;98496.70;1723078;82;25948;-88
2021/06/07 04:13:37;;;;;;;;;;;;;;;16.73;65.33;98503.28;1726088;82;24470;-88
2021/06/07 04:16:04;;;;;;;;;;;;;;;16.84;65.29;98504.91;1715800;83;20468;-88
2021/06/07 04:18:32;;;;;;;;;;;;;;;16.93;65.23;98511.48;1713894;83;25530;-88
2021/06/07 04:20:58;;;;;;;;;;;;;;;17.06;65.17;98511.16;1713727;83;21984;-88
2021/06/07 04:23:24;;;;;;;;;;;;;;;17.17;65.08;98509.64;1715057;83;25980;-84
2021/06/07 04:25:50;;;;;;;;;;;;;;;17.26;64.97;98506.59;1721668;81;24438;-84
2021/06/07 04:28:17;;;;;;;;;;;;;;;17.26;64.84;98507.92;1717777;83;20619;-88
2021/06/07 04:30:43;;;;;;;;;;;;;;;17.24;64.68;98509.89;1713905;83;20315;-88
2021/06/07 04:33:08;;;;;;;;;;;;;;;17.28;64.59;98520.03;1717938;83;20355;-88
2021/06/07 04:35:35;;;;;;;;;;;;;;;17.32;64.50;98516.11;1694454;82;26022;-90
2021/06/07 04:38:03;;;;;;;;;;;;;;;17.41;64.45;98523.63;1754594;81;25303;-86
2021/06/07 04:40:34;;;;;;;;;;;;;;;17.56;64.41;98518.20;1755267;81;20144;-88
2021/06/07 04:43:09;;;;;;;;;;;;;;;17.70;64.34;98518.20;1760101;81;24869;-89
2021/06/07 04:45:36;;;;;;;;;;;;;;;17.82;64.26;98514.36;1752611;81;21992;-84
2021/06/07 04:48:02;;;;;;;;;;;;;;;17.91;64.12;98514.77;1754660;81;26553;-88
2021/06/07 04:50:29;;;;;;;;;;;;;;;17.97;63.97;98514.17;1758318;81;24677;-88
2021/06/07 04:52:57;;;;;;;;;;;;;;;18.00;63.85;98511.72;1763575;81;20570;-87
2021/06/07 04:55:25;;;;;;;;;;;;;;;18.00;63.69;98513.05;1755668;81;25012;-88
2021/06/07 04:57:51;;;;;;;;;;;;;;;17.95;63.55;98514.80;1752098;81;22102;-88
2021/06/07 05:00:19;;;;;;;;;;;;;;;17.90;63.38;98515.75;1761759;80;25915;-88
2021/06/07 05:02:45;;;;;;;;;;;;;;;17.83;63.26;98515.55;1747007;80;24438;-88
2021/06/07 05:05:17;;;;;;;;;;;;;;;17.79;63.15;98512.83;1757838;80;20371;-84
2021/06/07 05:07:43;;;;;;;;;;;;;;;17.77;63.11;98512.17;1753019;80;24825;-88
2021/06/07 05:10:10;;;;;;;;;;;;;;;17.73;63.01;98517.92;1762481;80;21906;-85
2021/06/07 05:12:36;;;;;;;;;;;;;;;17.70;62.91;98524.82;1763201;80;26024;-85
2021/06/07 05:15:02;;;;;;;;;;;;;;;17.67;62.83;98521.16;1753798;79;20263;-85
2021/06/07 05:17:28;;;;;;;;;;;;;;;17.70;62.80;98524.33;1764227;81;20256;-85
2021/06/07 05:19:55;;;;;;;;;;;;;;;17.75;62.79;98523.39;1762139;80;24974;-87
2021/06/07 05:22:21;;;;;;;;;;;;;;;17.81;62.81;98530.73;1758616;80;22053;-87
2021/06/07 05:24:47;;;;;;;;;;;;;;;17.82;62.77;98527.11;1761567;80;26047;-87
2021/06/07 05:27:15;;;;;;;;;;;;;;;17.82;62.74;98527.11;1760892;80;20275;-88
2021/06/07 05:30:01;;;;;;;;;;;;;;;17.83;62.72;98528.78;1760516;81;20256;-91
2021/06/07 05:32:28;;;;;;;;;;;;;;;17.83;62.74;98531.43;1763426;80;24752;-86
2021/06/07 05:34:55;;;;;;;;;;;;;;;17.86;62.72;98532.44;1770740;79;21880;-87
2021/06/07 05:37:26;;;;;;;;;;;;;;;17.93;62.74;98528.70;1771141;80;25895;-88
2021/06/07 05:39:52;;;;;;;;;;;;;;;17.97;62.77;98535.36;1777994;80;24418;-88
2021/06/07 05:42:18;;;;;;;;;;;;;;;18.00;62.78;98531.09;1771857;80;21777;-87
2021/06/07 05:44:44;;;;;;;;;;;;;;;18.07;62.78;98536.59;1770400;80;24913;-88
2021/06/07 05:47:10;;;;;;;;;;;;;;;18.16;62.78;98541.00;1770062;80;20873;-89
2021/06/07 05:49:38;;;;;;;;;;;;;;;18.20;62.77;98539.22;1770792;80;21044;-88
2021/06/07 05:52:08;;;;;;;;;;;;;;;18.23;62.67;98534.09;1776116;80;24453;-87
2021/06/07 05:54:35;;;;;;;;;;;;;;;18.31;62.65;98535.50;1771620;80;20223;-88
2021/06/07 05:57:02;;;;;;;;;;;;;;;18.38;62.59;98536.03;1775986;80;24845;-87
2021/06/07 05:59:28;;;;;;;;;;;;;;;18.41;62.51;98533.59;1773700;80;22000;-84
2021/06/07 06:01:55;;;;;;;;;;;;;;;18.46;62.46;98535.28;1772032;80;25999;-84
2021/06/07 06:04:24;;;;;;;;;;;;;;;18.51;62.44;98535.64;1769151;80;24486;-84
2021/06/07 06:06:50;;;;;;;;;;;;;;;18.53;62.43;98533.69;1772824;80;20225;-84
2021/06/07 06:09:17;;;;;;;;;;;;;;;18.59;62.38;98532.27;1778760;80;24725;-84
2021/06/07 06:11:43;;;;;;;;;;;;;;;18.62;62.28;98536.75;1775392;80;20362;-84
2021/06/07 06:14:09;;;;;;;;;;;;;;;18.69;62.22;98535.64;1774457;80;25961;-84
2021/06/07 06:16:35;;;;;;;;;;;;;;;18.71;62.19;98541.11;1775349;80;24435;-84
2021/06/07 06:19:02;;;;;;;;;;;;;;;18.76;62.12;98539.34;1773377;80;20218;-85
2021/06/07 06:21:28;;;;;;;;;;;;;;;18.82;62.11;98549.83;1774009;80;24842;-84
2021/06/07 06:23:55;;;;;;;;;;;;;;;18.85;62.04;98550.33;1775637;80;20245;-84
2021/06/07 06:26:21;;;;;;;;;;;;;;;18.95;61.99;98554.20;1776167;80;25921;-84
2021/06/07 06:28:48;;;;;;;;;;;;;;;19.05;61.95;98552.27;1775496;80;25307;-90
2021/06/07 06:31:15;;;;;;;;;;;;;;;19.09;61.83;98554.95;1775001;80;20874;-87
2021/06/07 06:33:41;;;;;;;;;;;;;;;19.17;61.71;98554.98;1778073;80;24928;-87
2021/06/07 06:36:08;;;;;;;;;;;;;;;19.27;61.69;98550.88;1772554;80;21977;-88
2021/06/07 06:38:34;;;;;;;;;;;;;;;19.39;61.64;98553.59;1775165;80;25984;-88
2021/06/07 06:41:00;;;;;;;;;;;;;;;19.37;61.52;98549.77;1776864;80;24440;-88
2021/06/07 06:43:27;;;;;;;;;;;;;;;19.43;61.50;98553.11;1771272;80;20203;-88
2021/06/07 06:45:53;;;;;;;;;;;;;;;19.43;61.44;98553.11;1774733;80;20260;-88
2021/06/07 06:48:19;;;;;;;;;;;;;;;19.33;61.36;98552.41;1773990;80;22232;-88
2021/06/07 06:50:45;;;;;;;;;;;;;;;19.40;61.36;98556.09;1772009;80;26018;-90
2021/06/07 06:53:13;;;;;;;;;;;;;;;19.49;61.43;98557.81;1772254;80;24417;-88
2021/06/07 06:55:40;;;;;;;;;;;;;;;19.59;61.47;98556.34;1774104;80;20469;-88
2021/06/07 06:58:08;;;;;;;;;;;;;;;19.67;61.43;98551.08;1774345;79;24737;-87
2021/06/07 07:00:37;;;;;;;;;;;;;;;19.70;61.33;98552.06;1776487;80;22111;-86
2021/06/07 07:03:07;;;;;;;;;;;;;;;19.76;61.21;98558.55;1772153;80;25940;-87
2021/06/07 07:05:38;;;;;;;;;;;;;;;19.82;61.15;98556.58;1773297;80;25296;-87
2021/06/07 07:08:05;;;;;;;;;;;;;;;19.84;60.98;98561.25;1777116;80;20510;-88
2021/06/07 07:10:31;;;;;;;;;;;;;;;19.96;60.89;98567.92;1772449;80;24155;-88
2021/06/07 07:13:00;;;;;;;;;;;;;;;20.10;60.83;98567.77;1770976;80;22927;-88
2021/06/07 07:15:27;;;;;;;;;;;;;;;20.18;60.69;98565.97;1772584;80;26008;-88
2021/06/07 07:17:53;;;;;;;;;;;;;;;20.23;60.52;98568.97;1773453;80;20315;-88
2021/06/07 07:20:19;;;;;;;;;;;;;;;20.29;60.34;98569.61;1771701;80;20249;-88
2021/06/07 07:22:45;;;;;;;;;;;;;;;20.40;60.18;98569.84;1769691;80;24921;-91
2021/06/07 07:25:14;;;;;;;;;;;;;;;20.52;60.11;98571.64;1773442;80;21988;-92
2021/06/07 07:27:48;;;;;;;;;;;;;;;20.66;60.09;98579.80;1774042;80;26138;-88
2021/06/07 07:30:17;;;;;;;;;;;;;;;20.76;60.03;98571.64;1779675;80;25295;-89
2021/06/07 07:32:47;;;;;;;;;;;;;;;20.85;59.91;98579.44;1775241;79;20241;-88
2021/06/07 07:35:13;;;;;;;;;;;;;;;20.96;59.80;98576.92;1770064;80;24287;-87
2021/06/07 07:37:40;;;;;;;;;;;;;;;21.11;59.69;98579.21;1769273;80;22053;-88
2021/06/07 07:40:10;;;;;;;;;;;;;;;21.22;59.57;98581.55;1772327;80;26023;-88
2021/06/07 07:42:37;;;;;;;;;;;;;;;21.27;59.38;98583.72;1770482;80;24439;-88
2021/06/07 07:45:07;;;;;;;;;;;;;;;21.31;59.20;98577.55;1773491;80;20163;-85
2021/06/07 07:47:34;;;;;;;;;;;;;;;21.34;58.94;98583.34;1773818;80;24951;-86
2021/06/07 07:50:00;;;;;;;;;;;;;;;21.41;58.67;98578.17;1773637;80;21945;-86
2021/06/07 07:52:26;;;;;;;;;;;;;;;21.51;58.42;98574.80;1771224;80;25936;-86
2021/06/07 07:54:53;;;;;;;;;;;;;;;21.56;58.00;98579.09;1772442;80;24451;-86
2021/06/07 07:57:19;;;;;;;;;;;;;;;21.63;57.66;98572.92;1769025;80;20314;-86
2021/06/07 07:59:45;;;;;;;;;;;;;;;21.71;57.38;98581.39;1772862;80;25555;-86
2021/06/07 08:02:11;;;;;;;;;;;;;;;21.75;57.14;98576.53;1774552;79;20230;-88
2021/06/07 08:04:37;;;;;;;;;;;;;;;21.73;56.75;98567.37;1773261;80;21031;-88
2021/06/07 08:07:04;;;;;;;;;;;;;;;21.86;56.50;98581.47;1769096;80;24652;-88
2021/06/07 08:09:31;;;;;;;;;;;;;;;21.94;56.32;98580.94;1764989;80;20455;-88
2021/06/07 08:11:59;;;;;;;;;;;;;;;22.00;56.07;98576.24;1764443;80;25372;-88
2021/06/07 08:14:31;;;;;;;;;;;;;;;22.10;55.96;98572.02;1767571;80;22853;-88
2021/06/07 08:16:57;;;;;;;;;;;;;;;22.22;55.85;98571.94;1770242;80;25979;-88
2021/06/07 08:19:23;;;;;;;;;;;;;;;22.24;55.52;98575.27;1767461;80;24371;-87
2021/06/07 08:21:49;;;;;;;;;;;;;;;22.30;55.30;98567.89;1774556;80;20547;-86
2021/06/07 08:24:15;;;;;;;;;;;;;;;22.40;54.88;98571.64;1769202;80;24772;-87
2021/06/07 08:26:42;;;;;;;;;;;;;;;22.48;54.50;98572.90;1767130;80;22028;-86
2021/06/07 08:29:08;;;;;;;;;;;;;;;22.58;54.14;98574.02;1768882;79;25398;-86
2021/06/07 08:31:35;;;;;;;;;;;;;;;22.60;53.60;98575.97;1751601;80;24678;-86
2021/06/07 08:34:01;;;;;;;;;;;;;;;22.66;53.37;98573.42;1775119;80;20450;-86
2021/06/07 08:36:27;;;;;;;;;;;;;;;22.72;52.99;98576.73;1773855;80;24902;-86
2021/06/07 08:38:59;;;;;;;;;;;;;;;22.78;52.80;98574.69;1771754;80;20230;-86
2021/06/07 08:41:26;;;;;;;;;;;;;;;22.78;52.25;98576.52;1772851;80;25974;-88
2021/06/07 08:43:55;;;;;;;;;;;;;;;22.79;51.70;98564.84;1774863;80;25239;-88
2021/06/07 08:46:21;;;;;;;;;;;;;;;22.91;51.43;98562.06;1769609;80;20218;-88
2021/06/07 08:48:48;;;;;;;;;;;;;;;23.00;51.02;98572.14;1773503;80;24933;-86
2021/06/07 08:51:14;;;;;;;;;;;;;;;23.06;50.53;98572.25;1771128;80;21924;-86
2021/06/07 08:53:40;;;;;;;;;;;;;;;23.10;50.12;98569.53;1773412;80;20986;-86
2021/06/07 08:56:06;;;;;;;;;;;;;;;23.14;49.56;98567.30;1768851;80;20845;-87
2021/06/07 08:58:32;;;;;;;;;;;;;;;23.14;49.30;98560.13;1773034;79;20198;-90
2021/06/07 09:00:59;;;;;;;;;;;;;;;23.24;49.00;98567.86;1777015;80;20203;-90
2021/06/07 09:03:27;;;;;;;;;;;;;;;23.26;48.63;98574.69;1776071;79;21855;-90
2021/06/07 09:05:54;;;;;;;;;;;;;;;23.29;48.39;98571.64;1768052;80;25991;-90
2021/06/07 09:08:25;;;;;;;;;;;;;;;23.34;47.94;98573.28;1771980;80;24227;-90
2021/06/07 09:10:53;;;;;;;;;;;;;;;23.35;47.17;98570.91;1772047;80;20230;-90
2021/06/07 09:13:21;;;;;;;;;;;;;;;23.38;46.64;98567.05;1699151;83;24652;-90
2021/06/07 09:15:49;;;;;;;;;;;;;;;23.43;46.24;98573.16;1707343;83;22066;-90
2021/06/07 09:18:33;;;;;;;;;;;;;;;23.47;46.03;98581.98;1719233;82;25948;-87
2021/06/07 09:21:11;;;;;;;;;;;;;;;23.45;45.55;98570.64;1717288;83;24456;-87
2021/06/07 09:23:39;;;;;;;;;;;;;;;23.41;44.92;98572.00;1698493;84;20247;-86
2021/06/07 09:26:07;;;;;;;;;;;;;;;23.46;44.66;98566.97;1670952;84;26209;-86
2021/06/07 09:28:35;;;;;;;;;;;;;;;23.49;44.41;98563.94;1722796;82;21930;-87
2021/06/07 09:31:02;;;;;;;;;;;;;;;23.50;43.90;98565.60;1719383;82;26073;-90
2021/06/07 09:33:30;;;;;;;;;;;;;;;23.51;43.46;98565.09;1724375;82;24443;-90
2021/06/07 09:36:10;;;;;;;;;;;;;;;23.50;43.06;98566.11;1722319;82;20325;-90
2021/06/07 09:38:52;;;;;;;;;;;;;;;23.50;42.66;98564.27;1730941;82;24772;-89
2021/06/07 09:41:18;;;;;;;;;;;;;;;23.55;42.48;98564.53;1731374;82;22380;-90
2021/06/07 09:43:52;;;;;;;;;;;;;;;23.64;42.48;98555.39;1718666;82;20581;-90
2021/06/07 09:46:25;;;;;;;;;;;;;;;23.71;42.24;98556.81;1730258;82;25440;-90
2021/06/07 09:49:13;;;;;;;;;;;;;;;23.74;41.94;98555.09;1733869;82;20691;-90
2021/06/07 09:51:40;;;;;;;;;;;;;;;23.80;41.84;98556.19;1742301;80;24755;-93
2021/06/07 09:54:17;;;;;;;;;;;;;;;23.86;41.66;98545.57;1698408;83;21996;-93
2021/06/07 09:56:50;;;;;;;;;;;;;;;23.85;41.34;98555.11;1742331;82;25951;-88
2021/06/07 09:59:23;;;;;;;;;;;;;;;23.86;41.26;98552.25;1731614;82;24688;-88
2021/06/07 10:04:52;;;;;;;;;;;;;;;24.03;41.24;98543.49;1728141;82;24882;-86
2021/06/07 10:07:23;;;;;;;;;;;;;;;24.13;41.09;98542.16;1725232;82;21986;-86
2021/06/07 10:10:05;;;;;;;;;;;;;;;24.14;40.85;98538.98;1787899;79;26041;-88
2021/06/07 10:12:31;;;;;;;;;;;;;;;24.15;40.71;98543.31;1779889;79;24419;-88
2021/06/07 10:14:57;;;;;;;;;;;;;;;24.23;40.71;98545.05;1768423;80;20315;-88
2021/06/07 10:17:29;;;;;;;;;;;;;;;24.29;40.63;98545.63;1776720;80;20739;-89
2021/06/07 10:22:44;;;;;;;;;;;;;;;24.36;40.45;98540.67;1773076;80;26676;-88
2021/06/07 10:25:14;;;;;;;;;;;;;;;24.41;40.27;98542.26;1772804;80;24447;-86
2021/06/07 10:27:40;;;;;;;;;;;;;;;24.43;40.12;98540.23;1772643;79;20205;-85
2021/06/07 10:30:08;;;;;;;;;;;;;;;24.48;40.21;98535.63;1773598;80;24733;-86
2021/06/07 10:32:34;;;;;;;;;;;;;;;24.54;40.14;98541.05;1772736;80;22133;-89
2021/06/07 10:35:02;;;;;;;;;;;;;;;24.56;39.87;98530.95;1750758;80;20979;-89
2021/06/07 10:37:34;;;;;;;;;;;;;;;24.66;39.77;98531.16;1767809;79;25381;-89
2021/06/07 10:40:10;;;;;;;;;;;;;;;24.74;39.79;98530.48;1773013;80;20227;-90
2021/06/07 10:42:38;;;;;;;;;;;;;;;24.79;39.60;98524.54;1748384;80;25686;-85
2021/06/07 10:45:08;;;;;;;;;;;;;;;24.80;39.52;98529.70;1768941;80;22068;-85
2021/06/07 10:47:36;;;;;;;;;;;;;;;24.90;39.37;98529.39;1767916;80;26130;-85
2021/06/07 10:50:11;;;;;;;;;;;;;;;24.92;39.01;98525.51;1774579;80;24416;-89
2021/06/07 10:52:50;;;;;;;;;;;;;;;24.89;38.71;98521.03;1778686;80;20337;-89
2021/06/07 10:55:18;;;;;;;;;;;;;;;24.96;38.67;98516.56;1764549;80;24760;-88
2021/06/07 10:57:46;;;;;;;;;;;;;;;24.93;38.57;98518.27;1772953;80;22161;-88
2021/06/07 11:00:29;;;;;;;;;;;;;;;25.01;38.57;98520.81;1766210;80;26779;-89
2021/06/07 11:02:56;;;;;;;;;;;;;;;25.03;38.30;98516.09;1779456;80;25262;-89
2021/06/07 11:05:28;;;;;;;;;;;;;;;24.97;37.93;98518.22;1776437;80;20253;-89
2021/06/07 11:08:06;;;;;;;;;;;;;;;24.90;37.50;98521.36;1773884;80;24752;-88
2021/06/07 11:10:39;;;;;;;;;;;;;;;24.80;37.02;98516.33;1771155;80;22870;-87
2021/06/07 11:13:07;;;;;;;;;;;;;;;24.88;37.12;98516.19;1773667;80;26052;-86
2021/06/07 11:15:52;;;;;;;;;;;;;;;25.09;37.41;98511.30;1773571;80;24563;-88
2021/06/07 11:18:32;;;;;;;;;;;;;;;25.28;37.48;98511.89;1770111;80;20205;-88
2021/06/07 11:21:09;;;;;;;;;;;;;;;25.23;37.08;98511.67;1771035;80;25280;-88
2021/06/07 11:23:39;;;;;;;;;;;;;;;25.06;36.69;98518.88;1761659;80;21953;-88
2021/06/07 11:26:08;;;;;;;;;;;;;;;25.01;36.56;98510.09;1774834;80;25965;-89
2021/06/07 11:28:42;;;;;;;;;;;;;;;25.15;36.65;98515.84;1771230;79;25506;-89
2021/06/07 11:31:32;;;;;;;;;;;;;;;25.26;36.58;98501.05;1747893;79;20263;-88
2021/06/07 11:33:58;;;;;;;;;;;;;;;25.40;36.56;98502.27;1688791;83;24586;-88
2021/06/07 11:36:40;;;;;;;;;;;;;;;25.58;36.70;98501.77;1697652;83;21958;-89
2021/06/07 11:39:17;;;;;;;;;;;;;;;25.73;36.72;98500.26;1706034;83;25524;-89
2021/06/07 11:41:53;;;;;;;;;;;;;;;25.80;36.54;98502.45;1709005;82;24538;-88
2021/06/07 11:44:33;;;;;;;;;;;;;;;25.70;36.25;98500.13;1699108;83;20534;-88
2021/06/07 11:46:59;;;;;;;;;;;;;;;25.64;36.09;98498.80;1624365;88;24837;-89
2021/06/07 11:49:27;;;;;;;;;;;;;;;25.65;36.07;98491.04;1695030;82;22123;-88
2021/06/07 11:52:01;;;;;;;;;;;;;;;25.67;35.89;98499.72;1772132;80;26739;-88
2021/06/07 11:54:29;;;;;;;;;;;;;;;25.68;35.81;98492.83;1769848;80;25358;-85
2021/06/07 11:57:00;;;;;;;;;;;;;;;25.75;35.79;98490.14;1766967;80;20465;-89
2021/06/07 11:59:30;;;;;;;;;;;;;;;25.79;35.62;98481.52;1773196;80;24847;-88
2021/06/07 12:01:57;;;;;;;;;;;;;;;25.76;35.51;98488.60;1774042;80;22658;-85
2021/06/07 12:04:31;;;;;;;;;;;;;;;25.60;35.44;98493.50;1782892;78;26033;-85
2021/06/07 12:07:13;;;;;;;;;;;;;;;25.61;35.55;98490.63;1769735;79;24631;-88
2021/06/07 12:09:44;;;;;;;;;;;;;;;25.70;35.56;98491.26;1771120;80;20187;-89
2021/06/07 12:12:10;;;;;;;;;;;;;;;25.74;35.55;98489.34;1781792;79;24862;-89
2021/06/07 12:14:39;;;;;;;;;;;;;;;25.76;35.49;98486.44;1772771;80;21917;-88
2021/06/07 12:17:07;;;;;;;;;;;;;;;25.90;35.59;98484.11;1775330;78;26593;-88
2021/06/07 12:19:38;;;;;;;;;;;;;;;26.05;35.65;98479.39;1766971;80;24415;-89
2021/06/07 12:22:04;;;;;;;;;;;;;;;26.21;35.79;98487.55;1725143;82;20229;-89
2021/06/07 12:24:32;;;;;;;;;;;;;;;26.31;35.69;98481.80;1692587;83;24848;-88
2021/06/07 12:29:47;;;;;;;;;;;;;;;26.18;35.32;98482.61;1767769;80;26033;-88
2021/06/07 12:32:21;;;;;;;;;;;;;;;26.00;35.12;98478.34;1768363;79;24449;-88
2021/06/07 12:34:58;;;;;;;;;;;;;;;25.93;34.98;98478.33;1772064;80;20134;-89
2021/06/07 12:37:25;;;;;;;;;;;;;;;25.87;34.96;98481.82;1768887;80;24807;-88
2021/06/07 12:39:53;;;;;;;;;;;;;;;25.83;34.86;98478.73;1774919;78;22930;-89
2021/06/07 12:42:22;;;;;;;;;;;;;;;25.85;34.86;98473.69;1769144;80;25424;-86
2021/06/07 12:44:49;;;;;;;;;;;;;;;25.78;34.78;98475.00;1770078;80;24535;-92
2021/06/07 12:47:16;;;;;;;;;;;;;;;25.83;34.94;98468.52;1752131;80;20281;-89
2021/06/07 12:49:42;;;;;;;;;;;;;;;25.96;35.00;98470.41;1774499;79;24913;-86
2021/06/07 12:52:11;;;;;;;;;;;;;;;25.85;34.95;98477.70;1755482;79;22899;-85
2021/06/07 12:54:37;;;;;;;;;;;;;;;25.66;34.84;98481.47;1775695;80;21046;-87
2021/06/07 12:57:04;;;;;;;;;;;;;;;25.62;34.88;98476.71;1772825;80;24536;-87
2021/06/07 12:59:43;;;;;;;;;;;;;;;25.59;34.91;98479.27;1770157;80;20322;-88
2021/06/07 13:02:11;;;;;;;;;;;;;;;25.64;35.13;98480.03;1768635;80;24835;-88
2021/06/07 13:04:39;;;;;;;;;;;;;;;25.73;35.21;98472.94;1773380;79;22775;-88